Climax, Minnesota
Current Conditions -  °F | °C
As of 12:14 AM on Thursday 23 Oct 2014 (Local Time) from KCKN Reporting Station
Clear Clear  
Wind Chill: 50°   Ceiling: Unl
Heat Index: 50°   Visibility: 10mi
Dew Point: 48°   Wind: 9mph
Humidity: 94%   Direction: 200°SSW
Pressure: 29.87"   Gusts: NA
Location:  47.61°N, 96.82°W
Report Text: KCKN 230514Z AUTO 20008KT 10SM CLR 10/09 A2987 RMK AO2
Loading
Personal Weather Stations






























Interactive Weather Map
Tropical Storm Tracking
New forecast layout! Learn more

10-Day Weather Forecast

Advertisements
Track Severe Weather on mobile